sensor_id;sensor_type;location;lat;lon;timestamp;temperature;humidity
58161;DHT22;49345;47.428;9.892;2022-07-23T00:01:50;20.60;99.90
58161;DHT22;49345;47.428;9.892;2022-07-23T00:04:15;20.60;99.90
58161;DHT22;49345;47.428;9.892;2022-07-23T00:06:41;20.60;99.90
58161;DHT22;49345;47.428;9.892;2022-07-23T00:09:06;20.70;99.90
58161;DHT22;49345;47.428;9.892;2022-07-23T00:11:32;20.70;99.90
58161;DHT22;49345;47.428;9.892;2022-07-23T00:13:57;20.70;99.90
58161;DHT22;49345;47.428;9.892;2022-07-23T00:16:23;20.90;99.90
58161;DHT22;49345;47.428;9.892;2022-07-23T00:18:49;21.00;99.50
58161;DHT22;49345;47.428;9.892;2022-07-23T00:21:14;21.10;98.10
58161;DHT22;49345;47.428;9.892;2022-07-23T00:23:40;21.20;97.90
58161;DHT22;49345;47.428;9.892;2022-07-23T00:26:05;21.30;96.80
58161;DHT22;49345;47.428;9.892;2022-07-23T00:28:33;21.50;95.80
58161;DHT22;49345;47.428;9.892;2022-07-23T00:30:59;21.50;96.50
58161;DHT22;49345;47.428;9.892;2022-07-23T00:33:24;21.50;96.50
58161;DHT22;49345;47.428;9.892;2022-07-23T00:35:50;21.50;96.20
58161;DHT22;49345;47.428;9.892;2022-07-23T00:38:15;21.50;95.70
58161;DHT22;49345;47.428;9.892;2022-07-23T00:40:41;21.50;94.40
58161;DHT22;49345;47.428;9.892;2022-07-23T00:43:06;21.50;95.30
58161;DHT22;49345;47.428;9.892;2022-07-23T00:45:32;21.40;92.90
58161;DHT22;49345;47.428;9.892;2022-07-23T00:47:58;21.50;92.90
58161;DHT22;49345;47.428;9.892;2022-07-23T00:50:23;21.40;95.20
58161;DHT22;49345;47.428;9.892;2022-07-23T00:52:49;21.30;95.60
58161;DHT22;49345;47.428;9.892;2022-07-23T00:55:15;21.30;97.00
58161;DHT22;49345;47.428;9.892;2022-07-23T00:57:40;21.10;97.50
58161;DHT22;49345;47.428;9.892;2022-07-23T01:00:07;20.80;96.90
58161;DHT22;49345;47.428;9.892;2022-07-23T01:02:34;20.60;98.90
58161;DHT22;49345;47.428;9.892;2022-07-23T01:04:59;20.60;99.40
58161;DHT22;49345;47.428;9.892;2022-07-23T01:07:25;20.40;99.80
58161;DHT22;49345;47.428;9.892;2022-07-23T01:09:51;20.30;99.90
58161;DHT22;49345;47.428;9.892;2022-07-23T01:12:17;20.30;99.90
58161;DHT22;49345;47.428;9.892;2022-07-23T01:14:43;20.20;99.90
58161;DHT22;49345;47.428;9.892;2022-07-23T01:17:08;20.20;99.90
58161;DHT22;49345;47.428;9.892;2022-07-23T01:19:34;20.00;99.90
58161;DHT22;49345;47.428;9.892;2022-07-23T01:22:01;19.80;99.90
58161;DHT22;49345;47.428;9.892;2022-07-23T01:24:27;19.60;99.90
58161;DHT22;49345;47.428;9.892;2022-07-23T01:26:52;19.40;99.90
58161;DHT22;49345;47.428;9.892;2022-07-23T01:29:18;19.10;99.90
58161;DHT22;49345;47.428;9.892;2022-07-23T01:31:44;19.00;99.90
58161;DHT22;49345;47.428;9.892;2022-07-23T01:34:10;19.00;99.90
58161;DHT22;49345;47.428;9.892;2022-07-23T01:36:36;19.00;99.90
58161;DHT22;49345;47.428;9.892;2022-07-23T01:39:02;19.20;99.90
58161;DHT22;49345;47.428;9.892;2022-07-23T01:41:28;19.10;99.90
58161;DHT22;49345;47.428;9.892;2022-07-23T01:43:54;19.00;99.90
58161;DHT22;49345;47.428;9.892;2022-07-23T01:46:19;18.80;99.90
58161;DHT22;49345;47.428;9.892;2022-07-23T01:48:45;18.70;99.90
58161;DHT22;49345;47.428;9.892;2022-07-23T01:51:10;18.70;99.90
58161;DHT22;49345;47.428;9.892;2022-07-23T01:53:36;18.70;99.90
58161;DHT22;49345;47.428;9.892;2022-07-23T01:56:02;18.70;99.90
58161;DHT22;49345;47.428;9.892;2022-07-23T01:58:28;18.70;99.90
58161;DHT22;49345;47.428;9.892;2022-07-23T02:00:54;18.70;99.90
58161;DHT22;49345;47.428;9.892;2022-07-23T02:03:20;18.70;99.90
58161;DHT22;49345;47.428;9.892;2022-07-23T02:05:46;18.80;99.90
58161;DHT22;49345;47.428;9.892;2022-07-23T02:08:11;18.80;99.90
58161;DHT22;49345;47.428;9.892;2022-07-23T02:10:37;18.80;99.90
58161;DHT22;49345;47.428;9.892;2022-07-23T02:13:02;18.80;99.90
58161;DHT22;49345;47.428;9.892;2022-07-23T02:15:28;18.70;99.90
58161;DHT22;49345;47.428;9.892;2022-07-23T02:17:54;18.80;99.90
58161;DHT22;49345;47.428;9.892;2022-07-23T02:20:19;18.80;99.90
58161;DHT22;49345;47.428;9.892;2022-07-23T02:22:45;18.80;99.90
58161;DHT22;49345;47.428;9.892;2022-07-23T02:25:11;18.70;99.90
58161;DHT22;49345;47.428;9.892;2022-07-23T02:27:36;18.70;99.90
58161;DHT22;49345;47.428;9.892;2022-07-23T02:30:02;18.70;99.90
58161;DHT22;49345;47.428;9.892;2022-07-23T02:32:28;18.60;99.90
58161;DHT22;49345;47.428;9.892;2022-07-23T02:34:54;18.60;99.90
58161;DHT22;49345;47.428;9.892;2022-07-23T02:37:19;18.60;99.90
58161;DHT22;49345;47.428;9.892;2022-07-23T02:39:45;18.50;99.90
58161;DHT22;49345;47.428;9.892;2022-07-23T02:42:10;18.50;99.90
58161;DHT22;49345;47.428;9.892;2022-07-23T02:44:36;18.50;99.90
58161;DHT22;49345;47.428;9.892;2022-07-23T02:47:02;18.50;99.90
58161;DHT22;49345;47.428;9.892;2022-07-23T02:49:27;18.40;99.90
58161;DHT22;49345;47.428;9.892;2022-07-23T02:51:53;18.40;99.90
58161;DHT22;49345;47.428;9.892;2022-07-23T02:54:18;18.30;99.90
58161;DHT22;49345;47.428;9.892;2022-07-23T02:56:44;18.40;99.90
58161;DHT22;49345;47.428;9.892;2022-07-23T02:59:10;18.40;99.90
58161;DHT22;49345;47.428;9.892;2022-07-23T03:01:39;18.30;99.90
58161;DHT22;49345;47.428;9.892;2022-07-23T03:04:04;18.30;99.90
58161;DHT22;49345;47.428;9.892;2022-07-23T03:06:30;18.30;99.90
58161;DHT22;49345;47.428;9.892;2022-07-23T03:08:55;18.30;99.90
58161;DHT22;49345;47.428;9.892;2022-07-23T03:11:21;18.30;99.90
58161;DHT22;49345;47.428;9.892;2022-07-23T03:13:46;18.40;99.90
58161;DHT22;49345;47.428;9.892;2022-07-23T03:16:12;18.40;99.90
58161;DHT22;49345;47.428;9.892;2022-07-23T03:18:38;18.40;99.90
58161;DHT22;49345;47.428;9.892;2022-07-23T03:21:03;18.40;99.90
58161;DHT22;49345;47.428;9.892;2022-07-23T03:23:29;18.30;99.90
58161;DHT22;49345;47.428;9.892;2022-07-23T03:25:54;18.30;99.90
58161;DHT22;49345;47.428;9.892;2022-07-23T03:28:20;18.30;99.90
58161;DHT22;49345;47.428;9.892;2022-07-23T03:30:46;18.30;99.90
58161;DHT22;49345;47.428;9.892;2022-07-23T03:33:12;18.20;99.90
58161;DHT22;49345;47.428;9.892;2022-07-23T03:35:38;18.20;99.90
58161;DHT22;49345;47.428;9.892;2022-07-23T03:38:03;18.20;99.90
58161;DHT22;49345;47.428;9.892;2022-07-23T03:40:29;18.30;99.90
58161;DHT22;49345;47.428;9.892;2022-07-23T03:42:54;18.20;99.90
58161;DHT22;49345;47.428;9.892;2022-07-23T03:45:20;18.30;99.90
58161;DHT22;49345;47.428;9.892;2022-07-23T03:47:46;18.30;99.90
58161;DHT22;49345;47.428;9.892;2022-07-23T03:50:11;18.30;99.90
58161;DHT22;49345;47.428;9.892;2022-07-23T03:52:37;18.30;99.90
58161;DHT22;49345;47.428;9.892;2022-07-23T03:55:03;18.30;99.90
58161;DHT22;49345;47.428;9.892;2022-07-23T03:57:29;18.30;99.90
58161;DHT22;49345;47.428;9.892;2022-07-23T03:59:55;18.30;99.90
58161;DHT22;49345;47.428;9.892;2022-07-23T04:02:20;18.30;99.90
58161;DHT22;49345;47.428;9.892;2022-07-23T04:04:46;18.30;99.90
58161;DHT22;49345;47.428;9.892;2022-07-23T04:07:12;18.40;99.90
58161;DHT22;49345;47.428;9.892;2022-07-23T04:09:38;18.40;99.90
58161;DHT22;49345;47.428;9.892;2022-07-23T04:12:06;18.40;99.90
58161;DHT22;49345;47.428;9.892;2022-07-23T04:14:31;18.50;99.90
58161;DHT22;49345;47.428;9.892;2022-07-23T04:16:57;18.50;99.90
58161;DHT22;49345;47.428;9.892;2022-07-23T04:19:23;18.30;99.90
58161;DHT22;49345;47.428;9.892;2022-07-23T04:21:48;18.20;99.90
58161;DHT22;49345;47.428;9.892;2022-07-23T04:24:14;18.30;99.90
58161;DHT22;49345;47.428;9.892;2022-07-23T04:26:39;18.30;99.90
58161;DHT22;49345;47.428;9.892;2022-07-23T04:29:05;18.40;99.90
58161;DHT22;49345;47.428;9.892;2022-07-23T04:31:30;18.50;99.90
58161;DHT22;49345;47.428;9.892;2022-07-23T04:33:56;18.50;99.90
58161;DHT22;49345;47.428;9.892;2022-07-23T04:36:21;18.50;99.90
58161;DHT22;49345;47.428;9.892;2022-07-23T04:38:47;18.60;99.90
58161;DHT22;49345;47.428;9.892;2022-07-23T04:41:12;18.60;99.90
58161;DHT22;49345;47.428;9.892;2022-07-23T04:43:38;18.60;99.90
58161;DHT22;49345;47.428;9.892;2022-07-23T04:46:04;18.60;99.90
58161;DHT22;49345;47.428;9.892;2022-07-23T04:48:31;18.70;99.90
58161;DHT22;49345;47.428;9.892;2022-07-23T04:50:57;18.80;99.90
58161;DHT22;49345;47.428;9.892;2022-07-23T04:53:22;18.60;99.90
58161;DHT22;49345;47.428;9.892;2022-07-23T04:55:48;18.60;99.90
58161;DHT22;49345;47.428;9.892;2022-07-23T04:58:14;18.60;99.90
58161;DHT22;49345;47.428;9.892;2022-07-23T05:00:39;18.60;99.90
58161;DHT22;49345;47.428;9.892;2022-07-23T05:03:05;18.60;99.90
58161;DHT22;49345;47.428;9.892;2022-07-23T05:05:30;18.70;99.90
58161;DHT22;49345;47.428;9.892;2022-07-23T05:07:56;18.50;99.90
58161;DHT22;49345;47.428;9.892;2022-07-23T05:10:21;18.50;99.90
58161;DHT22;49345;47.428;9.892;2022-07-23T05:12:47;18.50;99.90
58161;DHT22;49345;47.428;9.892;2022-07-23T05:15:12;18.60;99.90
58161;DHT22;49345;47.428;9.892;2022-07-23T05:17:38;18.70;99.90
58161;DHT22;49345;47.428;9.892;2022-07-23T05:20:04;18.70;99.90
58161;DHT22;49345;47.428;9.892;2022-07-23T05:22:29;18.70;99.90
58161;DHT22;49345;47.428;9.892;2022-07-23T05:24:55;18.80;99.90
58161;DHT22;49345;47.428;9.892;2022-07-23T05:27:20;18.90;99.90
58161;DHT22;49345;47.428;9.892;2022-07-23T05:29:46;19.00;99.90
58161;DHT22;49345;47.428;9.892;2022-07-23T05:32:12;19.20;99.90
58161;DHT22;49345;47.428;9.892;2022-07-23T05:34:37;19.20;99.90
58161;DHT22;49345;47.428;9.892;2022-07-23T05:37:03;19.20;99.90
58161;DHT22;49345;47.428;9.892;2022-07-23T05:39:28;19.30;99.90
58161;DHT22;49345;47.428;9.892;2022-07-23T05:41:54;19.30;99.90
58161;DHT22;49345;47.428;9.892;2022-07-23T05:44:19;19.30;99.90
58161;DHT22;49345;47.428;9.892;2022-07-23T05:46:46;19.30;99.90
58161;DHT22;49345;47.428;9.892;2022-07-23T05:49:11;19.30;99.90
58161;DHT22;49345;47.428;9.892;2022-07-23T05:51:37;19.40;99.90
58161;DHT22;49345;47.428;9.892;2022-07-23T05:54:02;19.40;99.90
58161;DHT22;49345;47.428;9.892;2022-07-23T05:56:28;19.50;99.90
58161;DHT22;49345;47.428;9.892;2022-07-23T05:58:53;19.50;99.90
58161;DHT22;49345;47.428;9.892;2022-07-23T06:01:19;19.50;99.90
58161;DHT22;49345;47.428;9.892;2022-07-23T06:03:45;19.50;99.90
58161;DHT22;49345;47.428;9.892;2022-07-23T06:06:10;19.60;99.90
58161;DHT22;49345;47.428;9.892;2022-07-23T06:08:36;19.60;99.90
58161;DHT22;49345;47.428;9.892;2022-07-23T06:11:01;19.60;99.90
58161;DHT22;49345;47.428;9.892;2022-07-23T06:13:27;19.80;99.90
58161;DHT22;49345;47.428;9.892;2022-07-23T06:15:52;20.00;99.90
58161;DHT22;49345;47.428;9.892;2022-07-23T06:18:18;20.20;99.90
58161;DHT22;49345;47.428;9.892;2022-07-23T06:20:43;20.30;99.90
58161;DHT22;49345;47.428;9.892;2022-07-23T06:23:09;20.40;99.90
58161;DHT22;49345;47.428;9.892;2022-07-23T06:25:35;20.50;99.90
58161;DHT22;49345;47.428;9.892;2022-07-23T06:28:01;20.40;99.90
58161;DHT22;49345;47.428;9.892;2022-07-23T06:30:26;20.50;99.90
58161;DHT22;49345;47.428;9.892;2022-07-23T06:32:52;20.50;99.90
58161;DHT22;49345;47.428;9.892;2022-07-23T06:35:17;20.40;99.90
58161;DHT22;49345;47.428;9.892;2022-07-23T06:37:43;20.40;99.90
58161;DHT22;49345;47.428;9.892;2022-07-23T06:40:08;20.50;99.90
58161;DHT22;49345;47.428;9.892;2022-07-23T06:42:34;20.50;99.90
58161;DHT22;49345;47.428;9.892;2022-07-23T06:45:03;20.50;99.90
58161;DHT22;49345;47.428;9.892;2022-07-23T06:47:28;20.50;99.90
58161;DHT22;49345;47.428;9.892;2022-07-23T06:49:54;20.40;99.90
58161;DHT22;49345;47.428;9.892;2022-07-23T06:52:19;20.50;99.90
58161;DHT22;49345;47.428;9.892;2022-07-23T06:54:45;20.50;99.90
58161;DHT22;49345;47.428;9.892;2022-07-23T06:57:10;20.60;99.90
58161;DHT22;49345;47.428;9.892;2022-07-23T06:59:36;20.60;99.90
58161;DHT22;49345;47.428;9.892;2022-07-23T07:02:06;20.70;99.90
58161;DHT22;49345;47.428;9.892;2022-07-23T07:04:31;20.90;99.90
58161;DHT22;49345;47.428;9.892;2022-07-23T07:06:57;20.90;99.90
58161;DHT22;49345;47.428;9.892;2022-07-23T07:09:23;20.90;99.90
58161;DHT22;49345;47.428;9.892;2022-07-23T07:11:48;20.90;99.90
58161;DHT22;49345;47.428;9.892;2022-07-23T07:14:14;20.90;99.90
58161;DHT22;49345;47.428;9.892;2022-07-23T07:16:39;20.90;99.90
58161;DHT22;49345;47.428;9.892;2022-07-23T07:19:05;20.80;99.90
58161;DHT22;49345;47.428;9.892;2022-07-23T07:21:30;20.70;99.90
58161;DHT22;49345;47.428;9.892;2022-07-23T07:23:56;20.60;99.90
58161;DHT22;49345;47.428;9.892;2022-07-23T07:26:22;20.60;99.90
58161;DHT22;49345;47.428;9.892;2022-07-23T07:28:47;20.50;99.90
58161;DHT22;49345;47.428;9.892;2022-07-23T07:31:13;20.50;99.90
58161;DHT22;49345;47.428;9.892;2022-07-23T07:33:38;20.60;99.90
58161;DHT22;49345;47.428;9.892;2022-07-23T07:36:04;20.60;99.90
58161;DHT22;49345;47.428;9.892;2022-07-23T07:38:29;20.70;99.90
58161;DHT22;49345;47.428;9.892;2022-07-23T07:40:55;20.80;99.90
58161;DHT22;49345;47.428;9.892;2022-07-23T07:43:21;20.80;99.90
58161;DHT22;49345;47.428;9.892;2022-07-23T07:45:46;20.80;99.90
58161;DHT22;49345;47.428;9.892;2022-07-23T07:48:12;20.80;99.90
58161;DHT22;49345;47.428;9.892;2022-07-23T07:50:37;20.80;99.90
58161;DHT22;49345;47.428;9.892;2022-07-23T07:53:03;20.70;99.90
58161;DHT22;49345;47.428;9.892;2022-07-23T07:55:28;20.60;99.90
58161;DHT22;49345;47.428;9.892;2022-07-23T07:57:54;20.70;99.90
58161;DHT22;49345;47.428;9.892;2022-07-23T08:00:20;20.70;99.90
58161;DHT22;49345;47.428;9.892;2022-07-23T08:05:40;20.70;99.90
58161;DHT22;49345;47.428;9.892;2022-07-23T08:08:06;20.80;99.90
58161;DHT22;49345;47.428;9.892;2022-07-23T08:10:31;20.80;99.90
58161;DHT22;49345;47.428;9.892;2022-07-23T08:12:58;20.60;99.90
58161;DHT22;49345;47.428;9.892;2022-07-23T08:15:24;20.60;99.90
58161;DHT22;49345;47.428;9.892;2022-07-23T08:17:50;20.60;99.90
58161;DHT22;49345;47.428;9.892;2022-07-23T08:20:16;20.60;99.90
58161;DHT22;49345;47.428;9.892;2022-07-23T08:22:43;20.60;99.90
58161;DHT22;49345;47.428;9.892;2022-07-23T08:25:09;20.60;99.90
58161;DHT22;49345;47.428;9.892;2022-07-23T08:27:35;20.70;99.90
58161;DHT22;49345;47.428;9.892;2022-07-23T08:30:01;20.70;99.90
58161;DHT22;49345;47.428;9.892;2022-07-23T08:32:26;20.70;99.90
58161;DHT22;49345;47.428;9.892;2022-07-23T08:34:52;20.60;99.90
58161;DHT22;49345;47.428;9.892;2022-07-23T08:37:17;20.60;99.90
58161;DHT22;49345;47.428;9.892;2022-07-23T08:39:43;20.70;99.90
58161;DHT22;49345;47.428;9.892;2022-07-23T08:42:08;20.70;99.90
58161;DHT22;49345;47.428;9.892;2022-07-23T08:44:34;20.80;99.90
58161;DHT22;49345;47.428;9.892;2022-07-23T08:47:00;21.00;99.90
58161;DHT22;49345;47.428;9.892;2022-07-23T08:49:26;21.20;99.90
58161;DHT22;49345;47.428;9.892;2022-07-23T08:51:52;21.60;99.90
58161;DHT22;49345;47.428;9.892;2022-07-23T08:54:17;21.90;99.90
58161;DHT22;49345;47.428;9.892;2022-07-23T08:56:43;22.20;99.90
58161;DHT22;49345;47.428;9.892;2022-07-23T08:59:08;22.40;99.90
58161;DHT22;49345;47.428;9.892;2022-07-23T09:01:34;22.50;99.90
58161;DHT22;49345;47.428;9.892;2022-07-23T09:04:00;22.50;99.90
58161;DHT22;49345;47.428;9.892;2022-07-23T09:06:26;22.70;99.90
58161;DHT22;49345;47.428;9.892;2022-07-23T09:08:52;22.60;99.90
58161;DHT22;49345;47.428;9.892;2022-07-23T09:11:17;22.80;99.90
58161;DHT22;49345;47.428;9.892;2022-07-23T09:16:36;23.00;99.90
58161;DHT22;49345;47.428;9.892;2022-07-23T09:19:03;23.00;99.90
58161;DHT22;49345;47.428;9.892;2022-07-23T09:24:24;22.90;99.90
58161;DHT22;49345;47.428;9.892;2022-07-23T09:26:49;23.00;99.90
58161;DHT22;49345;47.428;9.892;2022-07-23T09:32:13;22.90;99.90
58161;DHT22;49345;47.428;9.892;2022-07-23T09:34:38;23.10;98.70
58161;DHT22;49345;47.428;9.892;2022-07-23T09:40:03;23.10;99.30
58161;DHT22;49345;47.428;9.892;2022-07-23T09:42:29;23.20;99.80
58161;DHT22;49345;47.428;9.892;2022-07-23T09:44:55;23.00;99.70
58161;DHT22;49345;47.428;9.892;2022-07-23T09:47:22;22.90;99.90
58161;DHT22;49345;47.428;9.892;2022-07-23T09:55:36;22.90;99.90
58161;DHT22;49345;47.428;9.892;2022-07-23T09:58:03;23.00;99.90
58161;DHT22;49345;47.428;9.892;2022-07-23T10:00:30;23.00;99.90
58161;DHT22;49345;47.428;9.892;2022-07-23T10:02:56;23.10;99.60
58161;DHT22;49345;47.428;9.892;2022-07-23T10:05:22;23.10;99.30
58161;DHT22;49345;47.428;9.892;2022-07-23T10:07:48;23.20;99.90
58161;DHT22;49345;47.428;9.892;2022-07-23T10:10:15;23.20;98.70
58161;DHT22;49345;47.428;9.892;2022-07-23T10:12:43;23.20;98.40
58161;DHT22;49345;47.428;9.892;2022-07-23T10:15:35;23.40;99.50
58161;DHT22;49345;47.428;9.892;2022-07-23T10:18:01;23.60;99.30
58161;DHT22;49345;47.428;9.892;2022-07-23T10:20:27;23.90;98.70
58161;DHT22;49345;47.428;9.892;2022-07-23T10:40:24;24.30;95.60
58161;DHT22;49345;47.428;9.892;2022-07-23T10:42:50;24.20;95.20
58161;DHT22;49345;47.428;9.892;2022-07-23T10:54:00;23.90;94.50
58161;DHT22;49345;47.428;9.892;2022-07-23T10:59:18;23.90;94.50
58161;DHT22;49345;47.428;9.892;2022-07-23T11:01:44;24.00;93.50
58161;DHT22;49345;47.428;9.892;2022-07-23T11:04:09;24.10;93.40
58161;DHT22;49345;47.428;9.892;2022-07-23T11:15:21;24.10;93.30
58161;DHT22;49345;47.428;9.892;2022-07-23T11:20:29;24.80;92.90
58161;DHT22;49345;47.428;9.892;2022-07-23T11:22:56;24.90;91.80
58161;DHT22;49345;47.428;9.892;2022-07-23T11:31:00;24.70;89.60
58161;DHT22;49345;47.428;9.892;2022-07-23T11:33:42;24.70;90.20
58161;DHT22;49345;47.428;9.892;2022-07-23T11:36:07;24.90;90.30
58161;DHT22;49345;47.428;9.892;2022-07-23T11:38:33;25.20;88.30
58161;DHT22;49345;47.428;9.892;2022-07-23T11:40:59;25.40;89.70
58161;DHT22;49345;47.428;9.892;2022-07-23T11:43:24;25.60;88.50
58161;DHT22;49345;47.428;9.892;2022-07-23T11:45:52;25.70;90.00
58161;DHT22;49345;47.428;9.892;2022-07-23T11:51:24;25.80;88.20
58161;DHT22;49345;47.428;9.892;2022-07-23T11:53:49;25.70;87.80
58161;DHT22;49345;47.428;9.892;2022-07-23T11:56:15;25.80;87.20
58161;DHT22;49345;47.428;9.892;2022-07-23T11:58:41;25.90;84.70
58161;DHT22;49345;47.428;9.892;2022-07-23T12:01:19;26.00;86.00
58161;DHT22;49345;47.428;9.892;2022-07-23T12:03:49;26.10;85.60
58161;DHT22;49345;47.428;9.892;2022-07-23T12:06:15;26.30;85.40
58161;DHT22;49345;47.428;9.892;2022-07-23T12:08:41;26.40;86.00
58161;DHT22;49345;47.428;9.892;2022-07-23T12:11:06;26.40;85.20
58161;DHT22;49345;47.428;9.892;2022-07-23T12:13:32;26.40;84.70
58161;DHT22;49345;47.428;9.892;2022-07-23T12:15:58;26.30;85.60
58161;DHT22;49345;47.428;9.892;2022-07-23T12:18:24;26.40;85.70
58161;DHT22;49345;47.428;9.892;2022-07-23T12:20:52;26.40;85.80
58161;DHT22;49345;47.428;9.892;2022-07-23T12:23:18;26.30;86.20
58161;DHT22;49345;47.428;9.892;2022-07-23T12:25:45;26.40;83.80
58161;DHT22;49345;47.428;9.892;2022-07-23T12:28:12;26.50;83.70
58161;DHT22;49345;47.428;9.892;2022-07-23T12:42:24;25.90;83.00
58161;DHT22;49345;47.428;9.892;2022-07-23T12:53:38;25.80;82.10
58161;DHT22;49345;47.428;9.892;2022-07-23T12:59:30;25.80;83.10
58161;DHT22;49345;47.428;9.892;2022-07-23T13:01:56;25.80;81.80
58161;DHT22;49345;47.428;9.892;2022-07-23T13:04:24;26.00;81.80
58161;DHT22;49345;47.428;9.892;2022-07-23T13:06:51;26.10;81.30
58161;DHT22;49345;47.428;9.892;2022-07-23T13:09:18;26.00;80.50
58161;DHT22;49345;47.428;9.892;2022-07-23T13:11:45;25.90;82.00
58161;DHT22;49345;47.428;9.892;2022-07-23T13:14:11;25.90;81.80
58161;DHT22;49345;47.428;9.892;2022-07-23T13:16:38;26.00;82.00
58161;DHT22;49345;47.428;9.892;2022-07-23T13:19:04;26.10;81.70
58161;DHT22;49345;47.428;9.892;2022-07-23T13:21:29;26.10;82.00
58161;DHT22;49345;47.428;9.892;2022-07-23T13:23:55;26.20;82.00
58161;DHT22;49345;47.428;9.892;2022-07-23T13:26:21;26.10;82.50
58161;DHT22;49345;47.428;9.892;2022-07-23T13:28:46;26.00;82.50
58161;DHT22;49345;47.428;9.892;2022-07-23T13:31:12;25.90;83.10
58161;DHT22;49345;47.428;9.892;2022-07-23T13:33:38;25.90;82.40
58161;DHT22;49345;47.428;9.892;2022-07-23T13:36:03;25.80;82.40
58161;DHT22;49345;47.428;9.892;2022-07-23T13:38:29;25.80;82.90
58161;DHT22;49345;47.428;9.892;2022-07-23T13:40:55;25.70;84.30
58161;DHT22;49345;47.428;9.892;2022-07-23T13:43:21;25.80;82.50
58161;DHT22;49345;47.428;9.892;2022-07-23T13:45:47;25.80;83.90
58161;DHT22;49345;47.428;9.892;2022-07-23T13:48:13;25.90;82.60
58161;DHT22;49345;47.428;9.892;2022-07-23T13:50:39;26.00;80.80
58161;DHT22;49345;47.428;9.892;2022-07-23T13:53:07;26.10;80.40
58161;DHT22;49345;47.428;9.892;2022-07-23T13:55:33;26.20;80.00
58161;DHT22;49345;47.428;9.892;2022-07-23T13:57:59;26.30;80.70
58161;DHT22;49345;47.428;9.892;2022-07-23T14:00:25;26.40;81.30
58161;DHT22;49345;47.428;9.892;2022-07-23T14:02:51;26.50;80.50
58161;DHT22;49345;47.428;9.892;2022-07-23T14:05:16;26.60;79.60
58161;DHT22;49345;47.428;9.892;2022-07-23T14:07:42;26.70;80.40
58161;DHT22;49345;47.428;9.892;2022-07-23T14:10:09;26.80;78.70
58161;DHT22;49345;47.428;9.892;2022-07-23T14:12:36;26.70;79.70
58161;DHT22;49345;47.428;9.892;2022-07-23T14:15:02;26.70;80.60
58161;DHT22;49345;47.428;9.892;2022-07-23T14:17:28;26.50;80.60
58161;DHT22;49345;47.428;9.892;2022-07-23T14:19:54;26.50;81.70
58161;DHT22;49345;47.428;9.892;2022-07-23T14:22:19;26.50;81.30
58161;DHT22;49345;47.428;9.892;2022-07-23T14:24:45;26.50;81.40
58161;DHT22;49345;47.428;9.892;2022-07-23T14:27:10;26.50;81.10
58161;DHT22;49345;47.428;9.892;2022-07-23T14:29:36;26.50;80.80
58161;DHT22;49345;47.428;9.892;2022-07-23T14:32:02;26.40;81.90
58161;DHT22;49345;47.428;9.892;2022-07-23T14:34:28;26.40;81.50
58161;DHT22;49345;47.428;9.892;2022-07-23T14:36:54;26.20;81.20
58161;DHT22;49345;47.428;9.892;2022-07-23T14:39:20;26.40;82.20
58161;DHT22;49345;47.428;9.892;2022-07-23T14:41:45;26.50;80.30
58161;DHT22;49345;47.428;9.892;2022-07-23T14:44:11;26.50;80.30
58161;DHT22;49345;47.428;9.892;2022-07-23T14:46:37;26.40;79.90
58161;DHT22;49345;47.428;9.892;2022-07-23T14:49:02;26.40;80.90
58161;DHT22;49345;47.428;9.892;2022-07-23T14:51:31;26.40;80.80
58161;DHT22;49345;47.428;9.892;2022-07-23T14:53:57;26.40;80.50
58161;DHT22;49345;47.428;9.892;2022-07-23T14:56:22;26.30;80.30
58161;DHT22;49345;47.428;9.892;2022-07-23T14:58:48;26.30;80.70
58161;DHT22;49345;47.428;9.892;2022-07-23T15:01:13;26.20;79.50
58161;DHT22;49345;47.428;9.892;2022-07-23T15:03:39;26.10;80.10
58161;DHT22;49345;47.428;9.892;2022-07-23T15:06:05;26.20;81.00
58161;DHT22;49345;47.428;9.892;2022-07-23T15:08:30;26.30;79.80
58161;DHT22;49345;47.428;9.892;2022-07-23T15:10:56;26.20;80.30
58161;DHT22;49345;47.428;9.892;2022-07-23T15:13:22;26.30;79.50
58161;DHT22;49345;47.428;9.892;2022-07-23T15:15:47;26.40;79.00
58161;DHT22;49345;47.428;9.892;2022-07-23T15:18:13;26.50;78.60
58161;DHT22;49345;47.428;9.892;2022-07-23T15:20:39;26.50;78.70
58161;DHT22;49345;47.428;9.892;2022-07-23T15:23:05;26.40;79.10
58161;DHT22;49345;47.428;9.892;2022-07-23T15:25:31;26.30;78.70
58161;DHT22;49345;47.428;9.892;2022-07-23T15:27:57;26.50;78.10
58161;DHT22;49345;47.428;9.892;2022-07-23T15:30:24;26.50;79.00
58161;DHT22;49345;47.428;9.892;2022-07-23T15:32:49;26.50;79.30
58161;DHT22;49345;47.428;9.892;2022-07-23T15:35:15;26.70;78.50
58161;DHT22;49345;47.428;9.892;2022-07-23T15:37:41;26.70;78.40
58161;DHT22;49345;47.428;9.892;2022-07-23T15:40:07;26.70;78.60
58161;DHT22;49345;47.428;9.892;2022-07-23T15:42:33;26.70;78.40
58161;DHT22;49345;47.428;9.892;2022-07-23T15:44:58;26.80;79.20
58161;DHT22;49345;47.428;9.892;2022-07-23T15:47:24;26.90;78.60
58161;DHT22;49345;47.428;9.892;2022-07-23T15:49:50;27.00;78.60
58161;DHT22;49345;47.428;9.892;2022-07-23T15:52:15;26.90;77.80
58161;DHT22;49345;47.428;9.892;2022-07-23T15:54:41;26.80;77.70
58161;DHT22;49345;47.428;9.892;2022-07-23T15:57:08;26.80;77.90
58161;DHT22;49345;47.428;9.892;2022-07-23T15:59:33;26.90;77.80
58161;DHT22;49345;47.428;9.892;2022-07-23T16:01:59;27.00;77.80
58161;DHT22;49345;47.428;9.892;2022-07-23T16:04:24;27.10;77.90
58161;DHT22;49345;47.428;9.892;2022-07-23T16:06:50;27.30;77.60
58161;DHT22;49345;47.428;9.892;2022-07-23T16:09:16;27.50;76.40
58161;DHT22;49345;47.428;9.892;2022-07-23T16:11:41;27.60;75.90
58161;DHT22;49345;47.428;9.892;2022-07-23T16:14:07;27.60;75.10
58161;DHT22;49345;47.428;9.892;2022-07-23T16:16:33;27.60;74.80
58161;DHT22;49345;47.428;9.892;2022-07-23T16:19:02;27.60;74.40
58161;DHT22;49345;47.428;9.892;2022-07-23T16:21:27;27.60;75.00
58161;DHT22;49345;47.428;9.892;2022-07-23T16:23:53;27.70;73.10
58161;DHT22;49345;47.428;9.892;2022-07-23T16:26:19;27.80;71.20
58161;DHT22;49345;47.428;9.892;2022-07-23T16:28:46;27.90;71.30
58161;DHT22;49345;47.428;9.892;2022-07-23T16:31:11;27.90;72.20
58161;DHT22;49345;47.428;9.892;2022-07-23T16:33:37;27.90;72.20
58161;DHT22;49345;47.428;9.892;2022-07-23T16:36:03;28.00;72.30
58161;DHT22;49345;47.428;9.892;2022-07-23T16:38:30;28.30;70.20
58161;DHT22;49345;47.428;9.892;2022-07-23T16:40:55;28.40;69.60
58161;DHT22;49345;47.428;9.892;2022-07-23T16:43:21;28.30;70.80
58161;DHT22;49345;47.428;9.892;2022-07-23T16:45:47;28.30;70.40
58161;DHT22;49345;47.428;9.892;2022-07-23T16:48:12;28.20;70.50
58161;DHT22;49345;47.428;9.892;2022-07-23T16:50:38;28.20;69.60
58161;DHT22;49345;47.428;9.892;2022-07-23T16:53:04;28.10;71.70
58161;DHT22;49345;47.428;9.892;2022-07-23T16:55:30;28.00;71.80